Seakay Spirit — WSNB — position and weather

sailwx.info

Track history (hours):
 
Tides and Currents Weather Stations Pressure Air Temp Water Temp Dewpoint Dewpoint Depression Visibility Wind Speed Wind Dir Waves Ship Positions

Seakay Spirit

Owner: K SHIP 3 LLC, Bala Cynwyd, PA. More information available from US FCC via Universal Licensing System and Coast Guard Vessel Documentation Center.

Last reported at 2018-May-05 00:55 UTC. Time now 2018-May-22 10:15 UTC.
Position N 32°15' W 076°55'.
Warning: this ship's position is 17 days out of date.

Type: Ship. MMSI: 366238000.

Date/timePositionNaut miles runAvg speedWind from/ knotsBaromVisibWave heightAir tempDewpointWater temp
2018-May-05 00:55N 32°15' W 076°55'13512.0
2018-May-04 13:44N 31°18' W 079°19'312.7
2018-May-04 13:29N 31°16' W 079°22'1012.9
2018-May-04 12:40N 31°09' W 079°30'413.5
2018-May-04 12:23N 31°06' W 079°34'1812.7
2018-May-04 11:00N 30°54' W 079°48'4 8.1
2018-May-04 10:30N 30°58' W 079°49'8 8.7
2018-May-04 09:35N 31°06' W 079°49'1 9.2
2018-May-04 09:28N 31°07' W 079°50'5 8.2
2018-May-04 08:51N 31°11' W 079°46'3 8.9
2018-May-04 08:29N 31°13' W 079°43'4 8.7
2018-May-04 07:59N 31°16' W 079°39'5 8.5
2018-May-04 07:22N 31°18' W 079°33'5 8.6
2018-May-04 06:50N 31°20' W 079°29'7 8.4
2018-May-04 05:58N 31°24' W 079°22'4 8.1
2018-May-04 05:30N 31°27' W 079°18'4 8.1
2018-May-04 05:00N 31°29' W 079°15'4 8.2
2018-May-04 04:30N 31°31' W 079°10'179 9.5
2018-May-03 09:44N 33°33' W 076°35'210.4
2018-May-03 09:29N 33°35' W 076°34'18 8.7
2018-May-03 07:24N 33°49' W 076°19'40 7.3
2018-May-03 01:55N 34°19' W 075°48'11 8.0
2018-May-03 00:33N 34°28' W 075°40'0 8.1
2018-May-03 00:30N 34°28' W 075°39'5 7.9
2018-May-02 23:51N 34°32' W 075°35'3 7.7
2018-May-02 23:25N 34°34' W 075°33'228 6.7
2018-May-01 13:33N 38°19' W 074°38'111.4
2018-May-01 13:26N 38°20' W 074°39'511.3
2018-May-01 13:01N 38°24' W 074°41'611.1
2018-May-01 12:30N 38°29' W 074°45'611.4
2018-May-01 12:00N 38°34' W 074°49'611.6
2018-May-01 11:30N 38°38' W 074°54'611.4
2018-May-01 10:59N 38°43' W 074°58'612.2
2018-May-01 10:30N 38°48' W 075°03'510.6
2018-May-01 10:01N 38°53' W 075°05'713.3
2018-May-01 09:30N 38°59' W 075°08'714.8
2018-May-01 09:00N 39°06' W 075°12'815.5
2018-May-01 08:30N 39°12' W 075°17'714.8
2018-May-01 08:00N 39°18' W 075°23'816.0
2018-May-01 07:30N 39°24' W 075°30'713.7
2018-May-01 07:01N 39°30' W 075°33'713.0
2018-May-01 06:30N 39°37' W 075°35'612.1
2018-May-01 06:00N 39°42' W 075°31'511.0
2018-May-01 05:30N 39°47' W 075°28'5 9.2
2018-May-01 05:00N 39°49' W 075°23'510.0
2018-May-01 04:30N 39°51' W 075°16'4 8.5
2018-May-01 04:00N 39°53' W 075°12'3 6.6
2018-May-01 03:30N 39°55' W 075°08'3 6.0
2018-May-01 03:00N 39°58' W 075°08'2 4.9
2018-May-01 02:30N 39°59' W 075°05'0 0.2
2018-May-01 01:58N 39°59' W 075°05'0 0.0
2018-May-01 01:28N 39°59' W 075°05'0 0.0
2018-May-01 00:58N 39°59' W 075°05'0 0.0
2018-May-01 00:28N 39°59' W 075°05'0 0.0
2018-Apr-30 23:58N 39°59' W 075°05'0 0.0
2018-Apr-30 23:25N 39°59' W 075°05'0 0.0
2018-Apr-30 22:58N 39°59' W 075°05'0 0.0
2018-Apr-30 22:28N 39°59' W 075°05'0 0.0
2018-Apr-30 21:58N 39°59' W 075°05'0 0.0
2018-Apr-30 21:28N 39°59' W 075°05'0 0.0
2018-Apr-30 20:58N 39°59' W 075°05'0 0.0
2018-Apr-30 20:28N 39°59' W 075°05'0 0.0
2018-Apr-30 19:58N 39°59' W 075°05'0 0.0
2018-Apr-30 19:22N 39°59' W 075°05'0 0.0
2018-Apr-30 18:58N 39°59' W 075°05'0 0.0
2018-Apr-30 18:28N 39°59' W 075°05'0 0.0
2018-Apr-30 17:58N 39°59' W 075°05'0 0.0
2018-Apr-30 17:28N 39°59' W 075°05'0 0.0
2018-Apr-30 16:58N 39°59' W 075°05'0 0.0
2018-Apr-30 16:28N 39°59' W 075°05'0 0.0
2018-Apr-30 15:58N 39°59' W 075°05'0 0.0
2018-Apr-30 15:25N 39°59' W 075°05'0 0.0
2018-Apr-30 14:58N 39°59' W 075°05'0 0.0
2018-Apr-30 14:28N 39°59' W 075°05'0 0.0
2018-Apr-30 13:59N 39°59' W 075°05'1 2.8
2018-Apr-30 13:30N 39°58' W 075°07'3 5.4
2018-Apr-30 13:00N 39°56' W 075°08'3 5.9
2018-Apr-30 12:30N 39°53' W 075°09'4 7.3
2018-Apr-30 12:00N 39°52' W 075°14'4 6.3
2018-Apr-30 11:27N 39°51' W 075°18'4 9.5
2018-Apr-30 11:01N 39°49' W 075°23'1 2.1
2018-Apr-30 10:30N 39°49' W 075°24'0 0.0
2018-Apr-30 09:52N 39°49' W 075°24'0 0.0
2018-Apr-30 09:28N 39°49' W 075°24'0 0.0
2018-Apr-30 08:58N 39°49' W 075°24'0 0.0
2018-Apr-30 08:28N 39°49' W 075°24'0 0.0
2018-Apr-30 07:52N 39°49' W 075°24'0 0.0
2018-Apr-30 07:25N 39°49' W 075°24'0 0.0
2018-Apr-30 06:52N 39°49' W 075°24'0 0.0
2018-Apr-30 06:28N 39°49' W 075°24'0 0.0
2018-Apr-30 05:49N 39°49' W 075°24'0 0.0
2018-Apr-30 04:10N 39°49' W 075°24'0 0.0
2018-Apr-30 03:46N 39°49' W 075°24'0 0.0
2018-Apr-30 03:25N 39°49' W 075°24'0 0.0
2018-Apr-30 02:55N 39°49' W 075°24'0 0.0
2018-Apr-30 02:28N 39°49' W 075°24'0 0.0
2018-Apr-30 01:58N 39°49' W 075°24'0 0.0
2018-Apr-30 01:25N 39°49' W 075°24'0 0.0
2018-Apr-30 00:55N 39°49' W 075°24'0 0.0
2018-Apr-29 07:15N 39°49' W 075°24'0 0.0
2018-Apr-29 06:55N 39°49' W 075°24'0 0.0
2018-Apr-29 06:27N 39°49' W 075°24'0 0.0
2018-Apr-29 05:56N 39°49' W 075°24'0 0.0
2018-Apr-29 05:21N 39°49' W 075°24'0 0.0
2018-Apr-29 04:55N 39°49' W 075°24'0 0.0
2018-Apr-29 04:28N 39°49' W 075°24'0 0.0
2018-Apr-29 03:58N 39°49' W 075°24'0 0.0
2018-Apr-29 03:28N 39°49' W 075°24'0 0.0
2018-Apr-29 03:00N 39°49' W 075°24'0 0.0
2018-Apr-29 02:27N 39°49' W 075°24'0 0.0
2018-Apr-29 01:58N 39°49' W 075°24'0 0.0
2018-Apr-29 01:21N 39°49' W 075°24'0 0.0
2018-Apr-28 23:36N 39°49' W 075°24'0 0.0
2018-Apr-28 18:55N 39°49' W 075°24'0 0.0
2018-Apr-28 18:28N 39°49' W 075°24'0 0.0
2018-Apr-28 17:58N 39°49' W 075°24'0 0.0
2018-Apr-28 17:28N 39°49' W 075°24'0 0.0
2018-Apr-28 16:58N 39°49' W 075°24'0 0.0
2018-Apr-28 16:28N 39°49' W 075°24'0 0.0
2018-Apr-28 15:58N 39°49' W 075°24'0 0.0
2018-Apr-28 15:30N 39°49' W 075°24'0 0.8
2018-Apr-28 15:01N 39°48' W 075°25'3 5.0
2018-Apr-28 14:30N 39°47' W 075°27'4 8.2
2018-Apr-28 14:00N 39°44' W 075°30'5 9.0
2018-Apr-28 13:30N 39°39' W 075°33'5 9.5
2018-Apr-28 13:00N 39°35' W 075°33'713.3
2018-Apr-28 12:30N 39°28' W 075°34'714.5
2018-Apr-28 12:00N 39°22' W 075°28'714.9
2018-Apr-28 11:30N 39°17' W 075°21'714.3
2018-Apr-28 11:00N 39°11' W 075°16'714.4
2018-Apr-28 10:30N 39°05' W 075°11'815.8
2018-Apr-28 10:00N 38°58' W 075°07'4 8.8
2018-Apr-28 09:30N 38°53' W 075°08'611.0
2018-Apr-28 09:00N 38°58' W 075°11'2 3.1
2018-Apr-28 08:30N 38°59' W 075°13'0 0.1
2018-Apr-28 08:00N 38°59' W 075°13'0 0.3
2018-Apr-28 07:30N 38°59' W 075°13'0 0.3
2018-Apr-28 07:00N 38°59' W 075°12'0 0.1
2018-Apr-28 06:30N 38°59' W 075°12'0 0.1
2018-Apr-28 05:57N 38°59' W 075°12'0 0.0
2018-Apr-28 05:30N 38°59' W 075°12'0 0.0
2018-Apr-28 05:00N 38°59' W 075°12'0 0.0
2018-Apr-28 04:30N 38°59' W 075°12'0 0.0
2018-Apr-28 03:57N 38°59' W 075°12'0 0.0
2018-Apr-28 03:27N 38°59' W 075°12'0 0.1
2018-Apr-28 03:00N 38°59' W 075°12'0 0.5
2018-Apr-28 02:30N 38°59' W 075°12'0 0.1
2018-Apr-28 02:00N 38°59' W 075°13'0 0.0
2018-Apr-28 01:30N 38°59' W 075°13'0 0.0
2018-Apr-28 01:00N 38°59' W 075°13'0 0.0
2018-Apr-28 00:30N 38°59' W 075°13'0 0.0
2018-Apr-28 00:00N 38°59' W 075°13'0 0.0
2018-Apr-27 23:24N 38°59' W 075°13'0 0.0
2018-Apr-27 22:57N 38°59' W 075°13'0 0.1
2018-Apr-27 18:00N 38°59' W 075°12'0 0.1
2018-Apr-27 17:27N 38°59' W 075°12'0 0.0
2018-Apr-27 17:00N 38°59' W 075°12'0 0.1
2018-Apr-27 16:30N 38°59' W 075°12'0 0.0
2018-Apr-27 16:00N 38°59' W 075°12'0 0.1
2018-Apr-27 15:30N 38°59' W 075°12'0 0.2
2018-Apr-27 15:00N 38°59' W 075°12'0 0.2
2018-Apr-27 14:24N 38°59' W 075°13'0 0.2
2018-Apr-27 13:57N 38°59' W 075°13'0 0.1
2018-Apr-27 13:30N 38°59' W 075°13'0 0.1
2018-Apr-27 13:00N 38°59' W 075°13'0 0.0
2018-Apr-27 12:30N 38°59' W 075°13'0 0.0
2018-Apr-27 11:49N 38°59' W 075°13'0 0.0
2018-Apr-27 11:19N 38°59' W 075°13'0 0.1
2018-Apr-27 10:57N 38°59' W 075°13'0 0.1
2018-Apr-27 10:28N 38°59' W 075°13'0 0.0
2018-Apr-27 08:54N 38°59' W 075°13'0 0.0
2018-Apr-27 08:15N 38°59' W 075°13'0 0.1
2018-Apr-27 07:30N 38°59' W 075°13'0 0.2
2018-Apr-27 06:19N 38°59' W 075°12'0 0.0
2018-Apr-27 05:55N 38°59' W 075°12'0 0.0
2018-Apr-27 05:28N 38°59' W 075°12'0 0.0
2018-Apr-27 04:56N 38°59' W 075°12'0 0.1
2018-Apr-27 04:25N 38°59' W 075°12'0 0.0
2018-Apr-27 03:54N 38°59' W 075°12'0 0.0
2018-Apr-27 02:43N 38°59' W 075°12'0 0.1
2018-Apr-27 02:25N 38°59' W 075°12'0 0.4
2018-Apr-27 01:55N 38°59' W 075°12'0 0.2
2018-Apr-27 01:24N 38°59' W 075°12'0 0.0
2018-Apr-27 01:00N 38°59' W 075°12'0 0.0
2018-Apr-27 00:30N 38°59' W 075°13'0 0.0
2018-Apr-27 00:00N 38°59' W 075°13'0 0.0
2018-Apr-26 23:30N 38°59' W 075°13'0 0.0
2018-Apr-26 23:00N 38°59' W 075°13'0 0.0
2018-Apr-26 22:30N 38°59' W 075°13'0 0.0
2018-Apr-26 21:57N 38°59' W 075°13'0 0.0
2018-Apr-26 21:30N 38°59' W 075°13'0 0.0
2018-Apr-26 20:06N 38°59' W 075°13'0 0.0
2018-Apr-26 20:00N 38°59' W 075°13'0 0.0
2018-Apr-26 19:21N 38°59' W 075°13'0 0.1
2018-Apr-26 18:57N 38°59' W 075°12'0 0.5
2018-Apr-26 18:30N 38°59' W 075°12'0 0.3
2018-Apr-26 18:00N 38°59' W 075°12'0 0.0
2018-Apr-26 17:30N 38°59' W 075°12'0 0.0
2018-Apr-26 17:00N 38°59' W 075°12'0 0.0
2018-Apr-26 16:30N 38°59' W 075°12'0 0.0
2018-Apr-26 16:00N 38°59' W 075°12'0 0.0
2018-Apr-26 15:30N 38°59' W 075°12'0 0.0
2018-Apr-26 15:00N 38°59' W 075°12'0 0.0
2018-Apr-26 14:27N 38°59' W 075°12'0 0.0
2018-Apr-26 14:00N 38°59' W 075°12'0 0.0
2018-Apr-26 13:21N 38°59' W 075°12'0 0.4
2018-Apr-26 13:00N 38°59' W 075°12'2 3.3
2018-Apr-26 12:27N 38°57' W 075°12'  
Track history (hours):
 
Tides and Currents Weather Stations Pressure Air Temp Water Temp Dewpoint Dewpoint Depression Visibility Wind Speed Wind Dir Waves Ship Positions

Seakay Spirit

Owner: K SHIP 3 LLC, Bala Cynwyd, PA. More information available from US FCC via Universal Licensing System and Coast Guard Vessel Documentation Center.

Last reported at 2018-May-05 00:55 UTC. Time now 2018-May-22 10:15 UTC.
Position N 32°15' W 076°55'.
Warning: this ship's position is 17 days out of date.

Type: Ship. MMSI: 366238000.

Date/timePositionNaut miles runAvg speedWind from/ knotsBaromVisibWave heightAir tempDewpointWater temp
2018-May-05 00:55N 32°15' W 076°55'13512.0
2018-May-04 13:44N 31°18' W 079°19'312.7
2018-May-04 13:29N 31°16' W 079°22'1012.9
2018-May-04 12:40N 31°09' W 079°30'413.5
2018-May-04 12:23N 31°06' W 079°34'1812.7
2018-May-04 11:00N 30°54' W 079°48'4 8.1
2018-May-04 10:30N 30°58' W 079°49'8 8.7
2018-May-04 09:35N 31°06' W 079°49'1 9.2
2018-May-04 09:28N 31°07' W 079°50'5 8.2
2018-May-04 08:51N 31°11' W 079°46'3 8.9
2018-May-04 08:29N 31°13' W 079°43'4 8.7
2018-May-04 07:59N 31°16' W 079°39'5 8.5
2018-May-04 07:22N 31°18' W 079°33'5 8.6
2018-May-04 06:50N 31°20' W 079°29'7 8.4
2018-May-04 05:58N 31°24' W 079°22'4 8.1
2018-May-04 05:30N 31°27' W 079°18'4 8.1
2018-May-04 05:00N 31°29' W 079°15'4 8.2
2018-May-04 04:30N 31°31' W 079°10'179 9.5
2018-May-03 09:44N 33°33' W 076°35'210.4
2018-May-03 09:29N 33°35' W 076°34'18 8.7
2018-May-03 07:24N 33°49' W 076°19'40 7.3
2018-May-03 01:55N 34°19' W 075°48'11 8.0
2018-May-03 00:33N 34°28' W 075°40'0 8.1
2018-May-03 00:30N 34°28' W 075°39'5 7.9
2018-May-02 23:51N 34°32' W 075°35'3 7.7
2018-May-02 23:25N 34°34' W 075°33'228 6.7
2018-May-01 13:33N 38°19' W 074°38'111.4
2018-May-01 13:26N 38°20' W 074°39'511.3
2018-May-01 13:01N 38°24' W 074°41'611.1
2018-May-01 12:30N 38°29' W 074°45'611.4
2018-May-01 12:00N 38°34' W 074°49'611.6
2018-May-01 11:30N 38°38' W 074°54'611.4
2018-May-01 10:59N 38°43' W 074°58'612.2
2018-May-01 10:30N 38°48' W 075°03'510.6
2018-May-01 10:01N 38°53' W 075°05'713.3
2018-May-01 09:30N 38°59' W 075°08'714.8
2018-May-01 09:00N 39°06' W 075°12'815.5
2018-May-01 08:30N 39°12' W 075°17'714.8
2018-May-01 08:00N 39°18' W 075°23'816.0
2018-May-01 07:30N 39°24' W 075°30'713.7
2018-May-01 07:01N 39°30' W 075°33'713.0
2018-May-01 06:30N 39°37' W 075°35'612.1
2018-May-01 06:00N 39°42' W 075°31'511.0
2018-May-01 05:30N 39°47' W 075°28'5 9.2
2018-May-01 05:00N 39°49' W 075°23'510.0
2018-May-01 04:30N 39°51' W 075°16'4 8.5
2018-May-01 04:00N 39°53' W 075°12'3 6.6
2018-May-01 03:30N 39°55' W 075°08'3 6.0
2018-May-01 03:00N 39°58' W 075°08'2 4.9
2018-May-01 02:30N 39°59' W 075°05'0 0.2
2018-May-01 01:58N 39°59' W 075°05'0 0.0
2018-May-01 01:28N 39°59' W 075°05'0 0.0
2018-May-01 00:58N 39°59' W 075°05'0 0.0
2018-May-01 00:28N 39°59' W 075°05'0 0.0
2018-Apr-30 23:58N 39°59' W 075°05'0 0.0
2018-Apr-30 23:25N 39°59' W 075°05'0 0.0
2018-Apr-30 22:58N 39°59' W 075°05'0 0.0
2018-Apr-30 22:28N 39°59' W 075°05'0 0.0
2018-Apr-30 21:58N 39°59' W 075°05'0 0.0
2018-Apr-30 21:28N 39°59' W 075°05'0 0.0
2018-Apr-30 20:58N 39°59' W 075°05'0 0.0
2018-Apr-30 20:28N 39°59' W 075°05'0 0.0
2018-Apr-30 19:58N 39°59' W 075°05'0 0.0
2018-Apr-30 19:22N 39°59' W 075°05'0 0.0
2018-Apr-30 18:58N 39°59' W 075°05'0 0.0
2018-Apr-30 18:28N 39°59' W 075°05'0 0.0
2018-Apr-30 17:58N 39°59' W 075°05'0 0.0
2018-Apr-30 17:28N 39°59' W 075°05'0 0.0
2018-Apr-30 16:58N 39°59' W 075°05'0 0.0
2018-Apr-30 16:28N 39°59' W 075°05'0 0.0
2018-Apr-30 15:58N 39°59' W 075°05'0 0.0
2018-Apr-30 15:25N 39°59' W 075°05'0 0.0
2018-Apr-30 14:58N 39°59' W 075°05'0 0.0
2018-Apr-30 14:28N 39°59' W 075°05'0 0.0
2018-Apr-30 13:59N 39°59' W 075°05'1 2.8
2018-Apr-30 13:30N 39°58' W 075°07'3 5.4
2018-Apr-30 13:00N 39°56' W 075°08'3 5.9
2018-Apr-30 12:30N 39°53' W 075°09'4 7.3
2018-Apr-30 12:00N 39°52' W 075°14'4 6.3
2018-Apr-30 11:27N 39°51' W 075°18'4 9.5
2018-Apr-30 11:01N 39°49' W 075°23'1 2.1
2018-Apr-30 10:30N 39°49' W 075°24'0 0.0
2018-Apr-30 09:52N 39°49' W 075°24'0 0.0
2018-Apr-30 09:28N 39°49' W 075°24'0 0.0
2018-Apr-30 08:58N 39°49' W 075°24'0 0.0
2018-Apr-30 08:28N 39°49' W 075°24'0 0.0
2018-Apr-30 07:52N 39°49' W 075°24'0 0.0
2018-Apr-30 07:25N 39°49' W 075°24'0 0.0
2018-Apr-30 06:52N 39°49' W 075°24'0 0.0
2018-Apr-30 06:28N 39°49' W 075°24'0 0.0
2018-Apr-30 05:49N 39°49' W 075°24'0 0.0
2018-Apr-30 04:10N 39°49' W 075°24'0 0.0
2018-Apr-30 03:46N 39°49' W 075°24'0 0.0
2018-Apr-30 03:25N 39°49' W 075°24'0 0.0
2018-Apr-30 02:55N 39°49' W 075°24'0 0.0
2018-Apr-30 02:28N 39°49' W 075°24'0 0.0
2018-Apr-30 01:58N 39°49' W 075°24'0 0.0
2018-Apr-30 01:25N 39°49' W 075°24'0 0.0
2018-Apr-30 00:55N 39°49' W 075°24'0 0.0
2018-Apr-29 07:15N 39°49' W 075°24'0 0.0
2018-Apr-29 06:55N 39°49' W 075°24'0 0.0
2018-Apr-29 06:27N 39°49' W 075°24'0 0.0
2018-Apr-29 05:56N 39°49' W 075°24'0 0.0
2018-Apr-29 05:21N 39°49' W 075°24'0 0.0
2018-Apr-29 04:55N 39°49' W 075°24'0 0.0
2018-Apr-29 04:28N 39°49' W 075°24'0 0.0
2018-Apr-29 03:58N 39°49' W 075°24'0 0.0
2018-Apr-29 03:28N 39°49' W 075°24'0 0.0
2018-Apr-29 03:00N 39°49' W 075°24'0 0.0
2018-Apr-29 02:27N 39°49' W 075°24'0 0.0
2018-Apr-29 01:58N 39°49' W 075°24'0 0.0
2018-Apr-29 01:21N 39°49' W 075°24'0 0.0
2018-Apr-28 23:36N 39°49' W 075°24'0 0.0
2018-Apr-28 18:55N 39°49' W 075°24'0 0.0
2018-Apr-28 18:28N 39°49' W 075°24'0 0.0
2018-Apr-28 17:58N 39°49' W 075°24'0 0.0
2018-Apr-28 17:28N 39°49' W 075°24'0 0.0
2018-Apr-28 16:58N 39°49' W 075°24'0 0.0
2018-Apr-28 16:28N 39°49' W 075°24'0 0.0
2018-Apr-28 15:58N 39°49' W 075°24'0 0.0
2018-Apr-28 15:30N 39°49' W 075°24'0 0.8
2018-Apr-28 15:01N 39°48' W 075°25'3 5.0
2018-Apr-28 14:30N 39°47' W 075°27'4 8.2
2018-Apr-28 14:00N 39°44' W 075°30'5 9.0
2018-Apr-28 13:30N 39°39' W 075°33'5 9.5
2018-Apr-28 13:00N 39°35' W 075°33'713.3
2018-Apr-28 12:30N 39°28' W 075°34'714.5
2018-Apr-28 12:00N 39°22' W 075°28'714.9
2018-Apr-28 11:30N 39°17' W 075°21'714.3
2018-Apr-28 11:00N 39°11' W 075°16'714.4
2018-Apr-28 10:30N 39°05' W 075°11'815.8
2018-Apr-28 10:00N 38°58' W 075°07'4 8.8
2018-Apr-28 09:30N 38°53' W 075°08'611.0
2018-Apr-28 09:00N 38°58' W 075°11'2 3.1
2018-Apr-28 08:30N 38°59' W 075°13'0 0.1
2018-Apr-28 08:00N 38°59' W 075°13'0 0.3
2018-Apr-28 07:30N 38°59' W 075°13'0 0.3
2018-Apr-28 07:00N 38°59' W 075°12'0 0.1
2018-Apr-28 06:30N 38°59' W 075°12'0 0.1
2018-Apr-28 05:57N 38°59' W 075°12'0 0.0
2018-Apr-28 05:30N 38°59' W 075°12'0 0.0
2018-Apr-28 05:00N 38°59' W 075°12'0 0.0
2018-Apr-28 04:30N 38°59' W 075°12'0 0.0
2018-Apr-28 03:57N 38°59' W 075°12'0 0.0
2018-Apr-28 03:27N 38°59' W 075°12'0 0.1
2018-Apr-28 03:00N 38°59' W 075°12'0 0.5
2018-Apr-28 02:30N 38°59' W 075°12'0 0.1
2018-Apr-28 02:00N 38°59' W 075°13'0 0.0
2018-Apr-28 01:30N 38°59' W 075°13'0 0.0
2018-Apr-28 01:00N 38°59' W 075°13'0 0.0
2018-Apr-28 00:30N 38°59' W 075°13'0 0.0
2018-Apr-28 00:00N 38°59' W 075°13'0 0.0
2018-Apr-27 23:24N 38°59' W 075°13'0 0.0
2018-Apr-27 22:57N 38°59' W 075°13'0 0.1
2018-Apr-27 18:00N 38°59' W 075°12'0 0.1
2018-Apr-27 17:27N 38°59' W 075°12'0 0.0
2018-Apr-27 17:00N 38°59' W 075°12'0 0.1
2018-Apr-27 16:30N 38°59' W 075°12'0 0.0
2018-Apr-27 16:00N 38°59' W 075°12'0 0.1
2018-Apr-27 15:30N 38°59' W 075°12'0 0.2
2018-Apr-27 15:00N 38°59' W 075°12'0 0.2
2018-Apr-27 14:24N 38°59' W 075°13'0 0.2
2018-Apr-27 13:57N 38°59' W 075°13'0 0.1
2018-Apr-27 13:30N 38°59' W 075°13'0 0.1
2018-Apr-27 13:00N 38°59' W 075°13'0 0.0
2018-Apr-27 12:30N 38°59' W 075°13'0 0.0
2018-Apr-27 11:49N 38°59' W 075°13'0 0.0
2018-Apr-27 11:19N 38°59' W 075°13'0 0.1
2018-Apr-27 10:57N 38°59' W 075°13'0 0.1
2018-Apr-27 10:28N 38°59' W 075°13'0 0.0
2018-Apr-27 08:54N 38°59' W 075°13'0 0.0
2018-Apr-27 08:15N 38°59' W 075°13'0 0.1
2018-Apr-27 07:30N 38°59' W 075°13'0 0.2
2018-Apr-27 06:19N 38°59' W 075°12'0 0.0
2018-Apr-27 05:55N 38°59' W 075°12'0 0.0
2018-Apr-27 05:28N 38°59' W 075°12'0 0.0
2018-Apr-27 04:56N 38°59' W 075°12'0 0.1
2018-Apr-27 04:25N 38°59' W 075°12'0 0.0
2018-Apr-27 03:54N 38°59' W 075°12'0 0.0
2018-Apr-27 02:43N 38°59' W 075°12'0 0.1
2018-Apr-27 02:25N 38°59' W 075°12'0 0.4
2018-Apr-27 01:55N 38°59' W 075°12'0 0.2
2018-Apr-27 01:24N 38°59' W 075°12'0 0.0
2018-Apr-27 01:00N 38°59' W 075°12'0 0.0
2018-Apr-27 00:30N 38°59' W 075°13'0 0.0
2018-Apr-27 00:00N 38°59' W 075°13'0 0.0
2018-Apr-26 23:30N 38°59' W 075°13'0 0.0
2018-Apr-26 23:00N 38°59' W 075°13'0 0.0
2018-Apr-26 22:30N 38°59' W 075°13'0 0.0
2018-Apr-26 21:57N 38°59' W 075°13'0 0.0
2018-Apr-26 21:30N 38°59' W 075°13'0 0.0
2018-Apr-26 20:06N 38°59' W 075°13'0 0.0
2018-Apr-26 20:00N 38°59' W 075°13'0 0.0
2018-Apr-26 19:21N 38°59' W 075°13'0 0.1
2018-Apr-26 18:57N 38°59' W 075°12'0 0.5
2018-Apr-26 18:30N 38°59' W 075°12'0 0.3
2018-Apr-26 18:00N 38°59' W 075°12'0 0.0
2018-Apr-26 17:30N 38°59' W 075°12'0 0.0
2018-Apr-26 17:00N 38°59' W 075°12'0 0.0
2018-Apr-26 16:30N 38°59' W 075°12'0 0.0
2018-Apr-26 16:00N 38°59' W 075°12'0 0.0
2018-Apr-26 15:30N 38°59' W 075°12'0 0.0
2018-Apr-26 15:00N 38°59' W 075°12'0 0.0
2018-Apr-26 14:27N 38°59' W 075°12'0 0.0
2018-Apr-26 14:00N 38°59' W 075°12'0 0.0
2018-Apr-26 13:21N 38°59' W 075°12'0 0.4
2018-Apr-26 13:00N 38°59' W 075°12'2 3.3
2018-Apr-26 12:27N 38°57' W 075°12'  

Dump ship's entire track history